Latest Weather Observations for Thevenard

IDS60801

Issued at 8:31 am CDT Thursday 19 January 2017 (issued every 30 minutes, with the page automatically refreshed every 10 minutes)

About weather observations | Map of weather stations | Latest weather observations for SA | Other Formats
Station Details ID: 018200 Name: THEVENARD WIND Lat: -32.18 Lon: 133.63 Height: 8.54 m
Data from the previous 72 hours. | See also: Recent months for locations in South Australia
Date/Time
CDT
Temp
°C
App
Temp
°C
Dew
Point
°C
Rel
Hum
%
Delta-T
°C
Wind Press
QNH
hPa
Press
MSL
hPa
Rain since
9am
mm
Dir  Spd
km/h
Gust
km/h
Spd
kts
Gust
kts
19/08:00am - - - - - ESE 19 22 10 12 - - -
19/07:30am - - - - - ESE 20 24 11 13 - - -
19/07:00am - - - - - ESE 24 30 13 16 - - -
19/06:30am - - - - - ESE 24 32 13 17 - - -
19/06:00am - - - - - ESE 26 33 14 18 - - -
19/05:30am - - - - - ESE 24 35 13 19 - - -
19/05:00am - - - - - ESE 30 37 16 20 - - -
19/04:30am - - - - - ESE 28 35 15 19 - - -
19/04:00am - - - - - ESE 24 33 13 18 - - -
19/03:30am - - - - - ESE 28 33 15 18 - - -
19/03:00am - - - - - ESE 24 28 13 15 - - -
19/02:30am - - - - - ESE 20 26 11 14 - - -
19/02:00am - - - - - ESE 24 32 13 17 - - -
19/01:30am - - - - - ESE 22 28 12 15 - - -
19/01:00am - - - - - SE 26 30 14 16 - - -
19/12:30am - - - - - SE 26 32 14 17 - - -
19/12:00am - - - - - SE 32 37 17 20 - - -
 
Date/Time
CDT
Temp
°C
App
Temp
°C
Dew
Point
°C
Rel
Hum
%
Delta-T
°C
Wind Press
QNH
hPa
Press
MSL
hPa
Rain since
9am
mm
Dir  Spd
km/h
Gust
km/h
Spd
kts
Gust
kts
18/11:30pm - - - - - SE 32 37 17 20 - - -
18/11:00pm - - - - - SE 32 37 17 20 - - -
18/10:30pm - - - - - SE 32 37 17 20 - - -
18/10:00pm - - - - - SE 39 46 21 25 - - -
18/09:30pm - - - - - SE 44 52 24 28 - - -
18/09:00pm - - - - - SE 46 54 25 29 - - -
18/08:30pm - - - - - SSE 46 57 25 31 - - -
18/08:00pm - - - - - SSE 46 57 25 31 - - -
18/07:30pm - - - - - SSE 43 52 23 28 - - -
18/07:00pm - - - - - SSE 46 56 25 30 - - -
18/06:30pm - - - - - SE 44 56 24 30 - - -
18/06:00pm - - - - - SE 46 56 25 30 - - -
18/05:30pm - - - - - SSE 52 63 28 34 - - -
18/05:00pm - - - - - SSE 50 61 27 33 - - -
18/04:30pm - - - - - SSE 52 63 28 34 - - -
18/04:00pm - - - - - SSE 50 59 27 32 - - -
18/03:30pm - - - - - S 44 54 24 29 - - -
18/03:00pm - - - - - SSE 33 39 18 21 - - -
18/02:30pm - - - - - SE 41 50 22 27 - - -
18/02:00pm - - - - - SE 44 54 24 29 - - -
18/01:30pm - - - - - SSE 48 57 26 31 - - -
18/01:00pm - - - - - SE 48 59 26 32 - - -
18/12:30pm - - - - - SE 52 63 28 34 - - -
18/12:00pm - - - - - SE 54 65 29 35 - - -
18/11:30am - - - - - SSE 52 63 28 34 - - -
18/11:00am - - - - - SSE 54 61 29 33 - - -
18/10:30am - - - - - SSE 48 59 26 32 - - -
18/10:00am - - - - - SSE 46 54 25 29 - - -
18/09:30am - - - - - SE 43 50 23 27 - - -
18/09:00am - - - - - SE 43 52 23 28 - - -
18/08:30am - - - - - SE 48 57 26 31 - - -
18/08:00am - - - - - SE 48 57 26 31 - - -
18/07:30am - - - - - SE 50 59 27 32 - - -
18/07:00am - - - - - SE 50 61 27 33 - - -
18/06:30am - - - - - SE 46 57 25 31 - - -
18/06:00am - - - - - SE 46 56 25 30 - - -
18/05:30am - - - - - SE 46 56 25 30 - - -
18/05:00am - - - - - SE 44 52 24 28 - - -
18/04:30am - - - - - SE 39 44 21 24 - - -
18/04:00am - - - - - SE 39 44 21 24 - - -
18/03:30am - - - - - SE 41 46 22 25 - - -
18/03:00am - - - - - SSE 39 46 21 25 - - -
18/02:30am - - - - - SE 39 46 21 25 - - -
18/02:00am - - - - - SE 43 48 23 26 - - -
18/01:30am - - - - - SE 46 52 25 28 - - -
18/01:00am - - - - - SE 43 52 23 28 - - -
18/12:30am - - - - - SE 43 50 23 27 - - -
18/12:00am - - - - - SE 44 54 24 29 - - -
 
Date/Time
CDT
Temp
°C
App
Temp
°C
Dew
Point
°C
Rel
Hum
%
Delta-T
°C
Wind Press
QNH
hPa
Press
MSL
hPa
Rain since
9am
mm
Dir  Spd
km/h
Gust
km/h
Spd
kts
Gust
kts
17/11:30pm - - - - - SE 46 54 25 29 - - -
17/11:00pm - - - - - SE 54 65 29 35 - - -
17/10:30pm - - - - - SE 57 69 31 37 - - -
17/10:00pm - - - - - SE 52 65 28 35 - - -
17/09:30pm - - - - - SSE 52 61 28 33 - - -
17/09:00pm - - - - - SSE 50 57 27 31 - - -
17/08:30pm - - - - - SSE 48 57 26 31 - - -
17/08:00pm - - - - - SE 46 57 25 31 - - -
17/07:30pm - - - - - SE 52 65 28 35 - - -
17/07:00pm - - - - - SSE 50 63 27 34 - - -
17/06:30pm - - - - - SSE 44 57 24 31 - - -
17/06:00pm - - - - - SSE 39 54 21 29 - - -
17/05:30pm - - - - - S 37 46 20 25 - - -
17/05:00pm - - - - - S 35 41 19 22 - - -
17/04:30pm - - - - - S 37 44 20 24 - - -
17/04:00pm - - - - - S 37 44 20 24 - - -
17/03:30pm - - - - - S 37 50 20 27 - - -
17/03:17pm - - - - - S 37 54 20 29 - - -
17/03:00pm - - - - - SSW 30 44 16 24 - - -
17/02:51pm - - - - - SSE 11 32 6 17 - - -
17/02:30pm - - - - - SSW 7 11 4 6 - - -
17/02:00pm - - - - - W 7 11 4 6 - - -
17/01:30pm - - - - - NNW 13 15 7 8 - - -
17/01:00pm - - - - - N 15 19 8 10 - - -
17/12:30pm - - - - - N 20 24 11 13 - - -
17/12:00pm - - - - - N 19 22 10 12 - - -
17/11:30am - - - - - N 20 26 11 14 - - -
17/11:00am - - - - - NNE 22 26 12 14 - - -
17/10:30am - - - - - NNE 26 32 14 17 - - -
17/10:00am - - - - - NNE 22 24 12 13 - - -
17/09:30am - - - - - NNE 28 30 15 16 - - -
17/09:00am - - - - - NNE 20 26 11 14 - - -
17/08:30am - - - - - NNE 22 26 12 14 - - -
17/08:00am - - - - - NNE 11 13 6 7 - - -
17/07:30am - - - - - NE 13 19 7 10 - - -
17/07:00am - - - - - NE 19 20 10 11 - - -
17/06:30am - - - - - NE 19 22 10 12 - - -
17/06:00am - - - - - NE 20 22 11 12 - - -
17/05:30am - - - - - NE 15 17 8 9 - - -
17/05:00am - - - - - NE 13 15 7 8 - - -
17/04:30am - - - - - NE 13 15 7 8 - - -
17/04:00am - - - - - NE 15 19 8 10 - - -
17/03:30am - - - - - NE 9 13 5 7 - - -
17/03:00am - - - - - ENE 9 11 5 6 - - -
17/02:30am - - - - - E 17 19 9 10 - - -
17/02:00am - - - - - E 9 13 5 7 - - -
17/01:30am - - - - - E 7 11 4 6 - - -
17/01:00am - - - - - E 13 19 7 10 - - -
17/12:30am - - - - - E 13 13 7 7 - - -
17/12:00am - - - - - E 17 20 9 11 - - -
 
Date/Time
CDT
Temp
°C
App
Temp
°C
Dew
Point
°C
Rel
Hum
%
Delta-T
°C
Wind Press
QNH
hPa
Press
MSL
hPa
Rain since
9am
mm
Dir  Spd
km/h
Gust
km/h
Spd
kts
Gust
kts
16/11:30pm - - - - - E 28 32 15 17 - - -
16/11:00pm - - - - - ESE 15 22 8 12 - - -
16/10:30pm - - - - - E 20 22 11 12 - - -
16/10:00pm - - - - - ESE 15 19 8 10 - - -
16/09:30pm - - - - - ESE 20 24 11 13 - - -
16/09:00pm - - - - - SE 26 30 14 16 - - -
16/08:30pm - - - - - ESE 19 24 10 13 - - -
16/08:00pm - - - - - SE 22 26 12 14 - - -
16/07:30pm - - - - - SE 22 24 12 13 - - -
16/07:00pm - - - - - SE 17 22 9 12 - - -
16/06:30pm - - - - - SE 20 24 11 13 - - -
16/06:00pm - - - - - SSE 20 24 11 13 - - -
16/05:30pm - - - - - SSE 20 24 11 13 - - -
16/05:00pm - - - - - SE 20 24 11 13 - - -
16/04:30pm - - - - - ESE 9 11 5 6 - - -
16/04:00pm - - - - - ESE 7 9 4 5 - - -
16/03:30pm - - - - - ESE 6 7 3 4 - - -
16/03:00pm - - - - - CALM 0 4 0 2 - - -
16/02:30pm - - - - - N 6 7 3 4 - - -
16/02:00pm - - - - - N 11 15 6 8 - - -
16/01:30pm - - - - - N 15 17 8 9 - - -
16/01:00pm - - - - - NNE 17 20 9 11 - - -
16/12:30pm - - - - - NNE 24 28 13 15 - - -
16/12:00pm - - - - - NNE 20 28 11 15 - - -
16/11:30am - - - - - NNE 24 32 13 17 - - -
16/11:00am - - - - - NNE 24 30 13 16 - - -
16/10:30am - - - - - NNE 26 32 14 17 - - -
16/10:00am - - - - - NNE 30 37 16 20 - - -
16/09:30am - - - - - NNE 26 32 14 17 - - -
16/09:00am - - - - - NNE 9 19 5 10 - - -

Other Formats:

Comma delimited format used in spreadsheet applications
http://www.bom.gov.au/fwo/IDS60801/IDS60801.95653.axf

JavaScript Object Notation format (JSON) in row-major order
http://www.bom.gov.au/fwo/IDS60801/IDS60801.95653.json